createdAt,value
2018-11-07T00:02:03.710Z,23.90
2018-11-07T00:05:20.372Z,23.50
2018-11-07T00:11:49.475Z,21.73
2018-11-07T00:15:05.211Z,22.60
2018-11-07T00:18:21.622Z,23.60
2018-11-07T00:21:38.231Z,25.40
2018-11-07T00:24:54.062Z,22.73
2018-11-07T00:28:10.287Z,24.93
2018-11-07T00:31:22.575Z,23.63
2018-11-07T00:34:46.278Z,23.40
2018-11-07T00:38:02.305Z,23.10
2018-11-07T00:41:18.628Z,19.20
2018-11-07T00:44:34.786Z,20.50
2018-11-07T00:47:50.893Z,19.33
2018-11-07T00:51:07.062Z,22.40
2018-11-07T00:54:23.168Z,23.37
2018-11-07T00:57:39.045Z,19.53
2018-11-07T01:00:55.222Z,17.93
2018-11-07T01:04:11.713Z,26.43
2018-11-07T01:07:27.965Z,21.57
2018-11-07T01:10:44.292Z,22.57
2018-11-07T01:14:00.447Z,21.53
2018-11-07T01:17:05.483Z,24.67
2018-11-07T01:20:30.133Z,23.37
2018-11-07T01:23:53.816Z,26.83
2018-11-07T01:27:09.802Z,27.57
2018-11-07T01:30:25.730Z,28.43
2018-11-07T01:33:41.728Z,20.13
2018-11-07T01:36:57.513Z,20.00
2018-11-07T01:40:16.972Z,21.00
2018-11-07T01:43:33.534Z,19.93
2018-11-07T01:46:49.967Z,18.27
2018-11-07T01:49:54.806Z,22.63
2018-11-07T01:53:11.030Z,22.80
2018-11-07T01:56:23.320Z,25.90
2018-11-07T01:59:39.210Z,24.47
2018-11-07T02:02:55.037Z,23.17
2018-11-07T02:06:11.177Z,22.80
2018-11-07T02:09:27.436Z,22.20
2018-11-07T02:12:44.148Z,26.80
2018-11-07T02:15:59.949Z,22.37
2018-11-07T02:19:15.900Z,18.50
2018-11-07T02:22:31.671Z,21.63
2018-11-07T02:25:48.426Z,19.70
2018-11-07T02:29:05.217Z,21.40
2018-11-07T02:32:21.171Z,23.13
2018-11-07T02:35:37.756Z,18.53
2018-11-07T02:38:53.737Z,18.60
2018-11-07T02:42:09.429Z,23.40
2018-11-07T02:45:26.128Z,24.93
2018-11-07T02:48:49.869Z,21.60
2018-11-07T02:52:05.572Z,21.43
2018-11-07T02:55:21.808Z,19.33
2018-11-07T02:58:37.641Z,22.40
2018-11-07T03:01:55.986Z,19.70
2018-11-07T03:05:12.434Z,24.70
2018-11-07T03:08:31.678Z,22.33
2018-11-07T03:11:47.816Z,20.30
2018-11-07T03:14:52.729Z,21.50
2018-11-07T03:18:09.165Z,25.70
2018-11-07T03:24:41.032Z,21.00
2018-11-07T03:28:04.746Z,19.60
2018-11-07T03:31:09.704Z,20.50
2018-11-07T03:34:33.417Z,26.43
2018-11-07T03:37:38.258Z,18.73
2018-11-07T03:41:01.966Z,23.83
2018-11-07T03:44:25.762Z,17.00
2018-11-07T03:47:49.508Z,19.23
2018-11-07T03:51:24.902Z,22.60
2018-11-07T03:54:18.090Z,19.80
2018-11-07T03:57:41.821Z,24.87
2018-11-07T04:01:05.549Z,19.27
2018-11-07T04:04:21.373Z,18.07
2018-11-07T04:07:26.274Z,21.93
2018-11-07T04:10:49.962Z,21.17
2018-11-07T04:13:54.963Z,22.77
2018-11-07T04:17:18.682Z,24.27
2018-11-07T04:20:42.362Z,20.50
2018-11-07T04:24:02.751Z,21.10
2018-11-07T04:27:26.493Z,21.10
2018-11-07T04:30:50.343Z,18.80
2018-11-07T04:33:55.183Z,17.73
2018-11-07T04:37:30.987Z,18.63
2018-11-07T04:40:42.904Z,18.17
2018-11-07T04:43:58.942Z,22.97
2018-11-07T04:47:14.917Z,26.73
2018-11-07T04:50:31.507Z,21.53
2018-11-07T04:53:47.450Z,18.23
2018-11-07T04:57:03.302Z,18.10
2018-11-07T05:00:42.203Z,19.77
2018-11-07T05:03:52.198Z,21.30
2018-11-07T05:06:57.185Z,17.60
2018-11-07T05:10:02.055Z,20.07
2018-11-07T05:13:25.743Z,16.90
2018-11-07T05:16:49.460Z,17.43
2018-11-07T05:20:05.368Z,19.77
2018-11-07T05:23:21.910Z,18.73
2018-11-07T05:26:37.768Z,21.43
2018-11-07T05:29:53.503Z,17.43
2018-11-07T05:33:09.768Z,20.90
2018-11-07T05:36:25.583Z,20.33
2018-11-07T05:39:41.517Z,20.77
2018-11-07T05:42:58.215Z,19.77
2018-11-07T05:46:14.157Z,23.47
2018-11-07T05:49:30.214Z,18.37
2018-11-07T05:52:49.315Z,18.07
2018-11-07T05:56:05.848Z,18.40
2018-11-07T05:59:21.585Z,19.40
2018-11-07T06:02:37.300Z,19.23
2018-11-07T06:05:53.364Z,19.70
2018-11-07T06:09:09.528Z,17.40
2018-11-07T06:12:25.375Z,18.37
2018-11-07T06:15:41.048Z,18.50
2018-11-07T06:18:57.511Z,22.20
2018-11-07T06:22:13.349Z,15.87
2018-11-07T06:25:29.113Z,18.60
2018-11-07T06:28:45.852Z,21.50
2018-11-07T06:32:11.984Z,22.10
2018-11-07T06:35:16.344Z,18.00
2018-11-07T06:38:40.052Z,15.30
2018-11-07T06:41:57.525Z,17.37
2018-11-07T06:45:13.294Z,14.70
2018-11-07T06:48:29.864Z,14.53
2018-11-07T06:51:34.682Z,19.53
2018-11-07T06:55:12.518Z,14.67
2018-11-07T06:58:13.931Z,16.07
2018-11-07T07:01:30.466Z,16.87
2018-11-07T07:04:46.489Z,18.70
2018-11-07T07:08:02.891Z,15.17
2018-11-07T07:11:18.745Z,15.17
2018-11-07T07:14:35.192Z,16.23
2018-11-07T07:17:51.647Z,16.53
2018-11-07T07:21:07.691Z,15.03
2018-11-07T07:24:23.453Z,17.20
2018-11-07T07:27:40.280Z,16.70
2018-11-07T07:30:45.040Z,15.97
2018-11-07T07:34:20.189Z,19.00
2018-11-07T07:37:32.459Z,17.27
2018-11-07T07:40:48.956Z,16.50
2018-11-07T07:44:05.849Z,19.43
2018-11-07T07:47:29.409Z,14.80
2018-11-07T07:50:53.132Z,17.50
2018-11-07T07:54:08.906Z,14.40
2018-11-07T07:57:25.461Z,23.30
2018-11-07T08:00:42.069Z,14.50
2018-11-07T08:03:58.205Z,15.60
2018-11-07T08:07:14.587Z,13.57
2018-11-07T08:10:30.319Z,12.20
2018-11-07T08:13:35.690Z,14.53
2018-11-07T08:16:59.110Z,15.07
2018-11-07T08:20:34.487Z,18.07
2018-11-07T08:23:38.683Z,17.83
2018-11-07T08:26:55.240Z,16.43
2018-11-07T08:30:11.262Z,15.43
2018-11-07T08:33:27.726Z,12.50
2018-11-07T08:36:43.730Z,15.87
2018-11-07T08:39:59.820Z,17.03
2018-11-07T08:43:15.701Z,13.20
2018-11-07T08:46:31.681Z,13.20
2018-11-07T08:49:47.580Z,17.13
2018-11-07T08:53:03.455Z,12.23
2018-11-07T08:56:19.372Z,13.07
2018-11-07T08:59:35.374Z,15.00
2018-11-07T09:02:51.470Z,17.03
2018-11-07T09:06:09.753Z,12.73
2018-11-07T09:09:25.621Z,15.30
2018-11-07T09:12:41.406Z,15.20
2018-11-07T09:15:46.404Z,18.97
2018-11-07T09:19:10.076Z,15.93
2018-11-07T09:22:33.799Z,17.37
2018-11-07T09:25:57.516Z,14.40
2018-11-07T09:29:21.287Z,16.40
2018-11-07T09:32:44.984Z,16.10
2018-11-07T09:36:08.679Z,17.10
2018-11-07T09:39:13.510Z,15.40
2018-11-07T09:42:37.602Z,16.63
2018-11-07T09:46:01.358Z,17.13
2018-11-07T09:49:17.336Z,16.97
2018-11-07T09:52:33.180Z,16.60
2018-11-07T09:55:49.791Z,16.13
2018-11-07T09:58:54.063Z,14.73
2018-11-07T10:02:10.616Z,16.27
2018-11-07T10:05:26.531Z,16.30
2018-11-07T10:08:31.413Z,19.73
2018-11-07T10:11:55.089Z,13.97
2018-11-07T10:15:12.190Z,16.47
2018-11-07T10:18:28.617Z,16.17
2018-11-07T10:21:45.330Z,12.60
2018-11-07T10:25:01.116Z,15.63
2018-11-07T10:28:17.036Z,15.23
2018-11-07T10:31:32.907Z,16.43
2018-11-07T10:34:48.887Z,12.93
2018-11-07T10:38:04.666Z,19.93
2018-11-07T10:41:20.429Z,10.53
2018-11-07T10:44:36.332Z,14.30
2018-11-07T10:47:52.593Z,12.60
2018-11-07T10:51:08.587Z,12.20
2018-11-07T10:54:24.311Z,13.10
2018-11-07T10:57:40.444Z,14.87
2018-11-07T11:01:14.878Z,12.43
2018-11-07T11:04:30.853Z,13.00
2018-11-07T11:07:47.416Z,14.20
2018-11-07T11:11:03.080Z,14.80
2018-11-07T11:14:19.387Z,12.40
2018-11-07T11:17:35.389Z,15.40
2018-11-07T11:20:40.246Z,10.83
2018-11-07T11:24:04.008Z,12.20
2018-11-07T11:30:44.816Z,14.30
2018-11-07T11:34:00.656Z,13.27
2018-11-07T11:37:16.473Z,11.10
2018-11-07T11:40:33.012Z,12.60
2018-11-07T11:43:49.294Z,12.17
2018-11-07T11:47:05.783Z,10.70
2018-11-07T11:50:22.370Z,9.97
2018-11-07T11:53:38.595Z,9.70
2018-11-07T11:56:43.461Z,9.60
2018-11-07T12:00:20.340Z,6.93
2018-11-07T12:03:25.273Z,9.10
2018-11-07T12:06:18.255Z,8.40
2018-11-07T12:09:41.952Z,8.10
2018-11-07T12:12:50.859Z,11.43
2018-11-07T12:16:14.947Z,10.03
2018-11-07T12:19:31.179Z,9.73
2018-11-07T12:22:49.903Z,8.77
2018-11-07T12:26:06.422Z,8.70
2018-11-07T12:29:18.517Z,10.73
2018-11-07T12:32:34.595Z,14.80
2018-11-07T12:35:50.710Z,14.80
2018-11-07T12:39:06.692Z,7.23
2018-11-07T12:42:22.649Z,9.73
2018-11-07T12:45:38.298Z,9.93
2018-11-07T12:48:54.293Z,8.77
2018-11-07T12:52:09.943Z,8.57
2018-11-07T12:55:25.699Z,8.77
2018-11-07T12:58:41.920Z,9.20
2018-11-07T13:01:57.797Z,8.90
2018-11-07T13:05:17.868Z,9.37
2018-11-07T13:08:34.429Z,7.80
2018-11-07T13:11:50.310Z,8.00
2018-11-07T13:15:06.060Z,8.53
2018-11-07T13:18:22.219Z,8.80
2018-11-07T13:21:38.094Z,9.97
2018-11-07T13:24:42.933Z,12.67
2018-11-07T13:28:06.714Z,9.80
2018-11-07T13:31:11.506Z,9.03
2018-11-07T13:34:35.302Z,8.57
2018-11-07T13:37:52.173Z,12.13
2018-11-07T13:41:07.901Z,9.90
2018-11-07T13:44:24.008Z,7.93
2018-11-07T13:47:47.441Z,9.13
2018-11-07T13:51:11.105Z,9.03
2018-11-07T13:54:27.033Z,8.37
2018-11-07T13:57:43.834Z,9.77
2018-11-07T14:01:00.424Z,9.60
2018-11-07T14:04:16.800Z,8.13
2018-11-07T14:07:32.814Z,8.40
2018-11-07T14:10:48.608Z,9.07
2018-11-07T14:13:53.568Z,8.80
2018-11-07T14:17:17.324Z,8.23
2018-11-07T14:20:33.989Z,8.13
2018-11-07T14:23:49.851Z,8.30
2018-11-07T14:27:05.724Z,10.73
2018-11-07T14:30:21.891Z,11.93
2018-11-07T14:33:38.624Z,10.90
2018-11-07T14:36:54.626Z,7.53
2018-11-07T14:40:10.590Z,7.20
2018-11-07T14:43:15.692Z,6.97
2018-11-07T14:46:39.530Z,8.13
2018-11-07T14:50:03.246Z,7.30
2018-11-07T14:53:18.909Z,10.00
2018-11-07T14:56:35.617Z,8.80
2018-11-07T14:59:51.335Z,11.53
2018-11-07T15:03:07.681Z,6.80
2018-11-07T15:06:24.230Z,10.20
2018-11-07T15:09:40.541Z,7.60
2018-11-07T15:12:56.355Z,8.90
2018-11-07T15:16:12.124Z,9.13
2018-11-07T15:19:28.397Z,7.07
2018-11-07T15:22:44.608Z,8.03
2018-11-07T15:26:08.039Z,6.77
2018-11-07T15:29:43.420Z,8.10
2018-11-07T15:32:47.935Z,8.27
2018-11-07T15:35:52.873Z,8.90
2018-11-07T15:39:28.266Z,7.10
2018-11-07T15:42:33.065Z,7.77
2018-11-07T15:45:48.968Z,8.40
2018-11-07T15:48:53.816Z,5.53
2018-11-07T15:52:17.536Z,7.13
2018-11-07T15:55:52.879Z,8.17
2018-11-07T15:58:57.977Z,7.10
2018-11-07T16:02:14.000Z,8.23
2018-11-07T16:05:30.228Z,7.43
2018-11-07T16:08:35.174Z,5.50
2018-11-07T16:11:58.871Z,7.27
2018-11-07T16:15:03.712Z,5.93
2018-11-07T16:18:27.431Z,5.80
2018-11-07T16:21:43.360Z,8.50
2018-11-07T16:24:59.760Z,11.67
2018-11-07T16:28:16.026Z,6.40
2018-11-07T16:31:32.674Z,6.73
2018-11-07T16:34:49.324Z,7.20
2018-11-07T16:38:05.346Z,9.63
2018-11-07T16:41:21.436Z,6.87
2018-11-07T16:44:37.083Z,9.10
2018-11-07T16:47:53.825Z,6.27
2018-11-07T16:54:29.473Z,9.00
2018-11-07T16:57:34.899Z,6.40
2018-11-07T17:00:58.592Z,10.03
2018-11-07T17:04:15.369Z,9.60
2018-11-07T17:07:31.195Z,4.83
2018-11-07T17:10:46.878Z,7.07
2018-11-07T17:14:03.063Z,5.80
2018-11-07T17:17:19.002Z,7.10
2018-11-07T17:20:35.532Z,6.97
2018-11-07T17:26:26.822Z,14.67
2018-11-07T17:29:46.071Z,4.70
2018-11-07T17:32:55.447Z,11.07
2018-11-07T17:36:11.432Z,6.37
2018-11-07T17:39:29.445Z,8.50
2018-11-07T17:42:46.290Z,6.97
2018-11-07T17:46:02.893Z,8.80
2018-11-07T17:49:19.437Z,5.97
2018-11-07T17:52:35.871Z,6.40
2018-11-07T17:55:52.357Z,6.50
2018-11-07T17:59:08.783Z,5.60
2018-11-07T18:02:24.558Z,5.67
2018-11-07T18:05:41.011Z,6.70
2018-11-07T18:08:57.081Z,5.53
2018-11-07T18:12:12.826Z,9.77
2018-11-07T18:15:29.376Z,5.73
2018-11-07T18:18:45.406Z,6.43
2018-11-07T18:21:50.213Z,5.00
2018-11-07T18:25:26.918Z,4.07
2018-11-07T18:28:50.339Z,5.17
2018-11-07T18:31:55.143Z,5.53
2018-11-07T18:35:20.038Z,10.20
2018-11-07T18:38:35.676Z,10.40
2018-11-07T18:41:52.051Z,6.63
2018-11-07T18:45:08.638Z,7.80
2018-11-07T18:48:13.541Z,6.47
2018-11-07T18:51:37.278Z,7.37
2018-11-07T18:55:01.061Z,5.00
2018-11-07T18:58:16.912Z,5.03
2018-11-07T19:01:33.461Z,6.33
2018-11-07T19:04:49.525Z,6.10
2018-11-07T19:08:13.076Z,5.80
2018-11-07T19:11:36.847Z,5.53
2018-11-07T19:14:41.679Z,4.03
2018-11-07T19:18:05.626Z,5.50
2018-11-07T19:21:22.216Z,7.03
2018-11-07T19:24:38.102Z,5.40
2018-11-07T19:27:53.956Z,7.03
2018-11-07T19:31:09.937Z,4.13
2018-11-07T19:34:28.711Z,6.60
2018-11-07T19:37:44.447Z,5.40
2018-11-07T19:41:01.143Z,5.60
2018-11-07T19:44:16.838Z,7.67
2018-11-07T19:47:32.751Z,6.97
2018-11-07T19:50:48.627Z,5.13
2018-11-07T19:54:05.214Z,6.20
2018-11-07T19:57:21.731Z,9.00
2018-11-07T20:00:26.739Z,4.43
2018-11-07T20:03:45.780Z,5.87
2018-11-07T20:06:55.467Z,5.73
2018-11-07T20:10:12.794Z,4.80
2018-11-07T20:13:29.409Z,8.93
2018-11-07T20:16:45.943Z,6.70
2018-11-07T20:20:02.058Z,4.80
2018-11-07T20:23:18.423Z,8.37
2018-11-07T20:26:23.348Z,7.23
2018-11-07T20:29:28.630Z,6.97
2018-11-07T20:32:33.442Z,5.60
2018-11-07T20:35:52.705Z,4.43
2018-11-07T20:39:02.177Z,4.57
2018-11-07T20:42:18.105Z,6.57
2018-11-07T20:45:41.934Z,5.50
2018-11-07T20:49:06.139Z,5.43
2018-11-07T20:56:46.123Z,4.90
2018-11-07T20:59:48.578Z,8.53
2018-11-07T21:03:04.931Z,5.70
2018-11-07T21:06:28.829Z,5.53
2018-11-07T21:09:52.656Z,6.03
2018-11-07T21:13:16.183Z,5.57
2018-11-07T21:16:39.881Z,6.60
2018-11-07T21:19:55.893Z,6.23
2018-11-07T21:23:12.623Z,5.07
2018-11-07T21:26:28.514Z,4.03
2018-11-07T21:29:44.234Z,6.43
2018-11-07T21:33:00.657Z,6.57
2018-11-07T21:36:16.519Z,7.30
2018-11-07T21:39:32.494Z,6.23
2018-11-07T21:42:48.556Z,5.60
2018-11-07T21:46:04.813Z,8.33
2018-11-07T21:49:21.423Z,4.77
2018-11-07T21:52:37.383Z,6.40
2018-11-07T21:55:53.100Z,4.10
2018-11-07T21:59:09.374Z,5.23
2018-11-07T22:02:25.473Z,6.23
2018-11-07T22:05:42.098Z,6.53
2018-11-07T22:08:58.755Z,5.40
2018-11-07T22:12:14.853Z,3.90
2018-11-07T22:15:30.599Z,6.23
2018-11-07T22:18:47.246Z,5.43
2018-11-07T22:22:03.802Z,4.97
2018-11-07T22:25:20.763Z,4.47
2018-11-07T22:28:32.671Z,7.30
2018-11-07T22:31:48.817Z,5.97
2018-11-07T22:35:05.616Z,8.27
2018-11-07T22:38:10.414Z,4.00
2018-11-07T22:41:48.175Z,4.40
2018-11-07T22:44:57.855Z,8.17
2018-11-07T22:48:21.570Z,6.73
2018-11-07T22:51:38.256Z,4.37
2018-11-07T22:54:54.832Z,4.60
2018-11-07T22:58:10.730Z,7.53
2018-11-07T23:01:45.174Z,5.03
2018-11-07T23:05:01.751Z,4.60
2018-11-07T23:08:18.294Z,9.20
2018-11-07T23:11:39.943Z,6.83
2018-11-07T23:14:56.495Z,5.13
2018-11-07T23:18:12.236Z,7.33
2018-11-07T23:21:28.848Z,4.97
2018-11-07T23:24:44.610Z,5.33
2018-11-07T23:28:00.477Z,6.80
2018-11-07T23:31:16.461Z,6.77
2018-11-07T23:34:32.551Z,5.23
2018-11-07T23:37:48.896Z,4.30
2018-11-07T23:41:05.020Z,6.60
2018-11-07T23:44:20.859Z,4.00
2018-11-07T23:47:37.152Z,5.67
2018-11-07T23:50:53.316Z,6.83
2018-11-07T23:54:09.191Z,6.50
2018-11-07T23:57:25.037Z,6.77
